createdAt,value
2017-08-03T00:00:20.565Z,97.20
2017-08-03T00:02:48.219Z,97.20
2017-08-03T00:05:15.845Z,97.40
2017-08-03T00:07:43.469Z,97.80
2017-08-03T00:10:11.887Z,98.20
2017-08-03T00:12:39.553Z,98.20
2017-08-03T00:15:07.187Z,98.60
2017-08-03T00:17:34.813Z,98.80
2017-08-03T00:20:02.433Z,98.60
2017-08-03T00:22:30.925Z,98.60
2017-08-03T00:24:58.554Z,98.50
2017-08-03T00:27:26.199Z,99.20
2017-08-03T00:29:53.817Z,99.80
2017-08-03T00:32:21.430Z,99.80
2017-08-03T00:34:49.072Z,99.50
2017-08-03T00:37:16.705Z,99.10
2017-08-03T00:39:44.354Z,99.00
2017-08-03T00:42:11.968Z,99.00
2017-08-03T00:44:40.339Z,98.20
2017-08-03T00:47:07.998Z,98.20
2017-08-03T00:49:35.615Z,98.10
2017-08-03T00:52:04.045Z,97.00
2017-08-03T00:54:31.664Z,97.00
2017-08-03T00:56:59.290Z,97.20
2017-08-03T00:59:26.969Z,97.20
2017-08-03T01:01:54.585Z,97.40
2017-08-03T01:04:22.244Z,97.00
2017-08-03T01:06:49.878Z,96.30
2017-08-03T01:09:17.505Z,96.10
2017-08-03T01:11:45.921Z,96.10
2017-08-03T01:14:13.527Z,96.10
2017-08-03T01:16:41.171Z,95.90
2017-08-03T01:19:09.602Z,97.20
2017-08-03T01:21:37.216Z,97.10
2017-08-03T01:24:04.868Z,97.20
2017-08-03T01:26:32.475Z,97.20
2017-08-03T01:29:00.892Z,96.90
2017-08-03T01:31:28.503Z,96.90
2017-08-03T01:33:56.133Z,97.10
2017-08-03T01:36:24.548Z,96.90
2017-08-03T01:38:52.164Z,96.90
2017-08-03T01:41:19.873Z,96.70
2017-08-03T01:43:48.248Z,95.70
2017-08-03T01:46:16.632Z,94.30
2017-08-03T01:48:44.279Z,94.30
2017-08-03T01:51:11.900Z,96.20
2017-08-03T01:53:40.320Z,97.00
2017-08-03T01:56:07.925Z,96.90
2017-08-03T01:58:35.543Z,96.90
2017-08-03T02:01:03.202Z,97.30
2017-08-03T02:03:31.563Z,97.80
2017-08-03T02:05:59.981Z,96.60
2017-08-03T02:08:27.600Z,96.40
2017-08-03T02:10:55.217Z,96.30
2017-08-03T02:13:22.864Z,95.70
2017-08-03T02:15:50.475Z,95.60
2017-08-03T02:18:18.119Z,96.10
2017-08-03T02:20:45.733Z,95.70
2017-08-03T02:23:13.348Z,96.40
2017-08-03T02:25:41.748Z,96.70
2017-08-03T02:28:09.393Z,96.30
2017-08-03T02:30:37.046Z,96.60
2017-08-03T02:33:04.660Z,97.00
2017-08-03T02:35:33.039Z,96.80
2017-08-03T02:38:00.684Z,96.80
2017-08-03T02:40:28.320Z,96.50
2017-08-03T02:42:55.979Z,96.50
2017-08-03T02:45:23.597Z,97.20
2017-08-03T02:47:51.987Z,97.90
2017-08-03T02:50:19.672Z,98.20
2017-08-03T02:52:47.297Z,98.70
2017-08-03T02:55:14.941Z,98.70
2017-08-03T02:57:42.561Z,99.20
2017-08-03T03:00:10.944Z,99.90
2017-08-03T03:02:38.597Z,99.90
2017-08-03T03:05:06.253Z,99.90
2017-08-03T03:07:33.905Z,99.90
2017-08-03T03:10:01.526Z,99.90
2017-08-03T03:12:29.153Z,99.90
2017-08-03T03:14:56.818Z,99.90
2017-08-03T03:17:24.427Z,99.90
2017-08-03T03:19:52.064Z,99.90
2017-08-03T03:22:19.694Z,99.90
2017-08-03T03:24:47.322Z,99.90
2017-08-03T03:27:14.959Z,99.90
2017-08-03T03:29:42.571Z,97.90
2017-08-03T03:32:10.240Z,99.10
2017-08-03T03:34:37.865Z,99.60
2017-08-03T03:37:05.505Z,99.90
2017-08-03T03:39:33.153Z,99.60
2017-08-03T03:42:01.549Z,94.50
2017-08-03T03:44:29.201Z,94.30
2017-08-03T03:46:56.821Z,97.70
2017-08-03T03:49:25.209Z,97.40
2017-08-03T03:51:52.861Z,97.40
2017-08-03T03:54:20.461Z,96.70
2017-08-03T03:56:48.108Z,97.30
2017-08-03T03:59:15.742Z,97.50
2017-08-03T04:01:43.349Z,97.00
2017-08-03T04:04:11.093Z,97.10
2017-08-03T04:06:38.734Z,97.20
2017-08-03T04:09:06.381Z,97.00
2017-08-03T04:11:33.992Z,97.00
2017-08-03T04:14:01.608Z,96.70
2017-08-03T04:16:29.291Z,97.00
2017-08-03T04:18:58.387Z,97.50
2017-08-03T04:21:26.023Z,96.80
2017-08-03T04:23:55.337Z,97.60
2017-08-03T04:26:22.954Z,97.50
2017-08-03T04:28:50.603Z,97.80
2017-08-03T04:31:18.991Z,97.10
2017-08-03T04:33:46.625Z,96.90
2017-08-03T04:36:14.291Z,97.40
2017-08-03T04:38:41.904Z,97.00
2017-08-03T04:41:10.280Z,96.00
2017-08-03T04:43:37.937Z,96.00
2017-08-03T04:46:05.555Z,96.20
2017-08-03T04:48:33.977Z,95.10
2017-08-03T04:51:01.600Z,95.00
2017-08-03T04:53:29.223Z,95.20
2017-08-03T04:55:57.638Z,94.40
2017-08-03T04:58:25.257Z,94.40
2017-08-03T05:00:52.905Z,93.40
2017-08-03T05:03:20.512Z,87.50
2017-08-03T05:05:48.901Z,90.30
2017-08-03T05:08:16.566Z,90.30
2017-08-03T05:10:44.182Z,89.20
2017-08-03T05:13:12.574Z,88.40
2017-08-03T05:15:40.191Z,88.30
2017-08-03T05:18:07.822Z,88.30
2017-08-03T05:20:36.273Z,87.70
2017-08-03T05:23:03.880Z,87.60
2017-08-03T05:25:31.519Z,86.40
2017-08-03T05:27:59.161Z,86.50
2017-08-03T05:30:26.778Z,87.60
2017-08-03T05:32:54.420Z,88.50
2017-08-03T05:35:22.834Z,89.30
2017-08-03T05:37:50.499Z,89.20
2017-08-03T05:40:18.125Z,91.30
2017-08-03T05:42:45.740Z,89.50
2017-08-03T05:45:14.187Z,87.50
2017-08-03T05:47:42.573Z,87.90
2017-08-03T05:50:10.216Z,87.80
2017-08-03T05:52:37.823Z,78.40
2017-08-03T05:55:05.426Z,78.40
2017-08-03T05:57:33.065Z,81.10
2017-08-03T06:00:00.727Z,80.40
2017-08-03T06:02:28.386Z,75.70
2017-08-03T06:04:56.032Z,79.30
2017-08-03T06:07:23.659Z,79.50
2017-08-03T06:09:51.300Z,75.30
2017-08-03T06:12:18.906Z,62.20
2017-08-03T06:14:47.345Z,60.40
2017-08-03T06:17:14.955Z,60.30
2017-08-03T06:19:42.561Z,59.50
2017-08-03T06:22:10.205Z,58.10
2017-08-03T06:24:37.825Z,60.30
2017-08-03T06:27:05.473Z,58.70
2017-08-03T06:29:33.071Z,57.30
2017-08-03T06:32:01.460Z,54.70
2017-08-03T06:34:29.172Z,54.70
2017-08-03T06:36:57.619Z,55.80
2017-08-03T06:39:25.358Z,54.70
2017-08-03T06:41:52.990Z,56.10
2017-08-03T06:44:20.584Z,55.50
2017-08-03T06:46:48.334Z,53.20
2017-08-03T06:49:16.717Z,49.30
2017-08-03T06:51:44.356Z,49.30
2017-08-03T06:54:11.988Z,46.20
2017-08-03T06:56:40.351Z,36.80
2017-08-03T06:59:08.852Z,34.60
2017-08-03T07:01:36.782Z,34.60
2017-08-03T07:04:04.784Z,37.00
2017-08-03T07:06:32.545Z,34.10
2017-08-03T07:09:00.680Z,35.10
2017-08-03T07:11:28.304Z,29.20
2017-08-03T07:13:55.917Z,28.40
2017-08-03T07:16:23.562Z,29.10
2017-08-03T07:18:51.173Z,28.70
2017-08-03T07:21:18.768Z,30.10
2017-08-03T07:23:47.233Z,26.20
2017-08-03T07:26:15.608Z,25.30
2017-08-03T07:28:44.024Z,23.40
2017-08-03T07:31:11.640Z,23.40
2017-08-03T07:33:39.249Z,22.70
2017-08-03T07:36:07.647Z,20.50
2017-08-03T07:38:35.252Z,20.50
2017-08-03T07:41:03.787Z,19.80
2017-08-03T07:43:31.384Z,19.80
2017-08-03T07:45:58.993Z,20.90
2017-08-03T07:48:26.732Z,20.50
2017-08-03T07:50:54.362Z,22.20
2017-08-03T07:53:22.009Z,25.30
2017-08-03T07:55:49.635Z,26.90
2017-08-03T07:58:18.239Z,27.70
2017-08-03T08:00:45.865Z,29.10
2017-08-03T08:03:13.493Z,29.60
2017-08-03T08:05:41.175Z,30.60
2017-08-03T08:08:15.771Z,31.70
2017-08-03T08:10:44.391Z,35.60
2017-08-03T08:13:12.775Z,35.50
2017-08-03T08:15:41.208Z,35.40
2017-08-03T08:18:09.685Z,36.30
2017-08-03T08:20:38.080Z,34.60
2017-08-03T08:23:05.721Z,34.60
2017-08-03T08:25:34.530Z,36.70
2017-08-03T08:28:02.179Z,37.80
2017-08-03T08:30:29.899Z,37.50
2017-08-03T08:32:57.514Z,38.80
2017-08-03T08:35:26.019Z,43.00
2017-08-03T08:37:53.689Z,43.10
2017-08-03T08:40:21.295Z,54.30
2017-08-03T08:42:48.943Z,53.30
2017-08-03T08:45:16.553Z,55.30
2017-08-03T08:47:44.959Z,58.70
2017-08-03T08:50:12.583Z,58.70
2017-08-03T08:52:40.220Z,61.20
2017-08-03T08:55:08.681Z,66.60
2017-08-03T08:57:37.102Z,67.20
2017-08-03T09:00:04.819Z,67.30
2017-08-03T09:02:32.436Z,72.40
2017-08-03T09:05:01.862Z,68.10
2017-08-03T09:07:29.503Z,73.50
2017-08-03T09:09:57.113Z,80.30
2017-08-03T09:12:24.758Z,81.90
2017-08-03T09:14:52.374Z,78.60
2017-08-03T09:17:20.138Z,76.70
2017-08-03T09:19:47.815Z,81.90
2017-08-03T09:22:16.240Z,75.40
2017-08-03T09:24:43.896Z,75.50
2017-08-03T09:27:11.561Z,72.10
2017-08-03T09:29:39.240Z,77.60
2017-08-03T09:32:06.884Z,76.00
2017-08-03T09:34:34.500Z,77.60
2017-08-03T09:37:02.147Z,74.80
2017-08-03T09:39:29.833Z,76.40
2017-08-03T09:41:57.444Z,79.50
2017-08-03T09:44:25.162Z,74.60
2017-08-03T09:46:52.760Z,76.80
2017-08-03T09:49:20.447Z,76.10
2017-08-03T09:51:48.074Z,76.00
2017-08-03T09:54:15.746Z,76.00
2017-08-03T09:56:43.384Z,76.80
2017-08-03T09:59:11.001Z,78.50
2017-08-03T10:01:38.654Z,77.60
2017-08-03T10:04:06.314Z,76.30
2017-08-03T10:06:34.200Z,75.30
2017-08-03T10:09:01.843Z,79.20
2017-08-03T10:11:29.470Z,80.40
2017-08-03T10:13:57.139Z,81.50
2017-08-03T10:16:24.744Z,82.70
2017-08-03T10:18:52.420Z,85.00
2017-08-03T10:21:20.077Z,84.50
2017-08-03T10:23:47.685Z,85.10
2017-08-03T10:26:15.328Z,83.50
2017-08-03T10:28:42.939Z,79.70
2017-08-03T10:31:10.671Z,79.20
2017-08-03T10:33:38.330Z,79.50
2017-08-03T10:36:11.543Z,80.70
2017-08-03T10:38:44.893Z,81.80
2017-08-03T10:41:17.952Z,79.80
2017-08-03T10:43:46.818Z,85.60
2017-08-03T10:46:15.239Z,86.10
2017-08-03T10:48:42.865Z,86.10
2017-08-03T10:51:10.505Z,82.40
2017-08-03T10:53:38.879Z,87.50
2017-08-03T10:56:09.183Z,87.40
2017-08-03T10:58:36.804Z,84.00
2017-08-03T11:01:04.425Z,85.30
2017-08-03T11:03:32.099Z,84.80
2017-08-03T11:05:59.749Z,82.40
2017-08-03T11:08:27.747Z,81.30
2017-08-03T11:10:55.368Z,79.50
2017-08-03T11:13:23.019Z,81.90
2017-08-03T11:15:50.659Z,78.20
2017-08-03T11:18:18.307Z,77.80
2017-08-03T11:20:46.315Z,76.50
2017-08-03T11:23:13.985Z,77.60
2017-08-03T11:25:42.425Z,72.90
2017-08-03T11:28:10.074Z,72.90
2017-08-03T11:30:37.700Z,72.60
2017-08-03T11:33:05.349Z,71.30
2017-08-03T11:35:33.005Z,68.70
2017-08-03T11:38:00.645Z,71.90
2017-08-03T11:40:28.580Z,70.40
2017-08-03T11:42:56.238Z,72.10
2017-08-03T11:45:23.910Z,68.90
2017-08-03T11:47:51.520Z,68.70
2017-08-03T11:50:19.133Z,71.90
2017-08-03T11:52:47.528Z,68.90
2017-08-03T11:55:15.144Z,68.70
2017-08-03T11:57:42.799Z,68.50
2017-08-03T12:00:10.399Z,64.70
2017-08-03T12:02:38.000Z,66.50
2017-08-03T12:05:05.635Z,67.20
2017-08-03T12:07:33.246Z,67.80
2017-08-03T12:10:00.880Z,69.10
2017-08-03T12:12:28.484Z,68.30
2017-08-03T12:14:56.097Z,68.00
2017-08-03T12:17:23.737Z,68.00
2017-08-03T12:19:51.349Z,69.30
2017-08-03T12:22:18.982Z,68.20
2017-08-03T12:24:46.576Z,69.80
2017-08-03T12:27:14.190Z,69.50
2017-08-03T12:29:41.827Z,67.70
2017-08-03T12:32:09.458Z,66.20
2017-08-03T12:34:37.092Z,67.90
2017-08-03T12:37:05.034Z,65.30
2017-08-03T12:39:32.713Z,63.00
2017-08-03T12:42:00.352Z,63.30
2017-08-03T12:44:27.960Z,63.20
2017-08-03T12:46:55.592Z,60.90
2017-08-03T12:49:23.200Z,60.00
2017-08-03T12:51:50.816Z,57.60
2017-08-03T12:54:18.524Z,55.80
2017-08-03T12:56:46.131Z,56.90
2017-08-03T12:59:13.767Z,56.20
2017-08-03T13:01:41.372Z,55.10
2017-08-03T13:04:08.985Z,54.40
2017-08-03T13:06:36.628Z,58.20
2017-08-03T13:09:04.244Z,54.40
2017-08-03T13:11:31.904Z,53.30
2017-08-03T13:13:59.536Z,54.10
2017-08-03T13:16:27.146Z,54.00
2017-08-03T13:18:54.792Z,52.00
2017-08-03T13:21:22.419Z,52.40
2017-08-03T13:23:50.056Z,52.80
2017-08-03T13:26:17.664Z,54.40
2017-08-03T13:28:46.089Z,51.20
2017-08-03T13:31:13.836Z,51.20
2017-08-03T13:33:41.431Z,52.70
2017-08-03T13:36:09.063Z,47.70
2017-08-03T13:38:36.706Z,48.20
2017-08-03T13:41:04.327Z,48.60
2017-08-03T13:43:32.751Z,46.50
2017-08-03T13:46:00.355Z,46.20
2017-08-03T13:48:27.993Z,46.50
2017-08-03T13:50:55.600Z,44.30
2017-08-03T13:53:23.210Z,40.40
2017-08-03T13:55:50.862Z,42.80
2017-08-03T13:58:18.462Z,41.80
2017-08-03T14:00:46.864Z,39.40
2017-08-03T14:03:14.500Z,39.40
2017-08-03T14:05:42.114Z,38.80
2017-08-03T14:08:09.793Z,39.60
2017-08-03T14:10:37.409Z,39.00
2017-08-03T14:13:05.823Z,38.80
2017-08-03T14:15:33.486Z,38.40
2017-08-03T14:18:01.117Z,39.60
2017-08-03T14:20:28.767Z,38.90
2017-08-03T14:22:56.397Z,41.50
2017-08-03T14:25:24.041Z,42.10
2017-08-03T14:27:51.664Z,41.60
2017-08-03T14:30:19.365Z,41.30
2017-08-03T14:32:47.010Z,42.60
2017-08-03T14:35:14.629Z,39.60
2017-08-03T14:37:42.256Z,43.10
2017-08-03T14:40:09.870Z,41.10
2017-08-03T14:42:37.489Z,42.60
2017-08-03T14:45:05.132Z,40.60
2017-08-03T14:47:32.732Z,39.30
2017-08-03T14:50:01.152Z,38.80
2017-08-03T14:52:28.749Z,38.80
2017-08-03T14:54:57.107Z,39.50
2017-08-03T14:57:24.750Z,39.50
2017-08-03T14:59:53.117Z,38.70
2017-08-03T15:02:21.537Z,38.70
2017-08-03T15:04:49.155Z,38.70
2017-08-03T15:07:16.764Z,38.10
2017-08-03T15:09:45.169Z,39.80
2017-08-03T15:12:12.768Z,39.60
2017-08-03T15:14:40.402Z,38.60
2017-08-03T15:17:08.007Z,38.90
2017-08-03T15:19:35.612Z,36.30
2017-08-03T15:22:03.319Z,38.30
2017-08-03T15:24:30.958Z,36.70
2017-08-03T15:26:58.591Z,38.80
2017-08-03T15:29:26.206Z,36.60
2017-08-03T15:31:53.809Z,38.20
2017-08-03T15:34:21.450Z,33.80
2017-08-03T15:36:49.177Z,35.00
2017-08-03T15:39:16.826Z,34.30
2017-08-03T15:41:44.433Z,32.80
2017-08-03T15:44:12.841Z,31.70
2017-08-03T15:46:40.516Z,31.70
2017-08-03T15:49:08.118Z,31.00
2017-08-03T15:51:35.762Z,30.00
2017-08-03T15:54:03.454Z,31.20
2017-08-03T15:56:31.065Z,31.90
2017-08-03T15:58:58.730Z,30.00
2017-08-03T16:01:26.361Z,28.80
2017-08-03T16:03:53.987Z,29.70
2017-08-03T16:06:21.599Z,28.80
2017-08-03T16:08:49.214Z,27.00
2017-08-03T16:11:16.858Z,26.50
2017-08-03T16:13:44.465Z,26.70
2017-08-03T16:16:12.869Z,27.40
2017-08-03T16:18:40.470Z,27.00
2017-08-03T16:21:08.826Z,28.50
2017-08-03T16:23:36.541Z,28.10
2017-08-03T16:26:04.192Z,28.60
2017-08-03T16:28:31.835Z,28.90
2017-08-03T16:30:59.446Z,29.00
2017-08-03T16:33:27.065Z,29.10
2017-08-03T16:35:55.459Z,28.60
2017-08-03T16:38:23.136Z,28.60
2017-08-03T16:40:50.775Z,27.80
2017-08-03T16:43:18.420Z,28.20
2017-08-03T16:45:46.026Z,29.30
2017-08-03T16:48:13.712Z,27.20
2017-08-03T16:50:41.315Z,28.00
2017-08-03T16:53:11.399Z,26.40
2017-08-03T16:55:39.780Z,26.40
2017-08-03T16:58:07.715Z,26.90
2017-08-03T17:00:35.372Z,26.40
2017-08-03T17:03:04.780Z,26.70
2017-08-03T17:05:34.332Z,26.50
2017-08-03T17:08:04.830Z,26.90
2017-08-03T17:10:32.428Z,26.40
2017-08-03T17:13:00.058Z,26.50
2017-08-03T17:15:28.583Z,27.50
2017-08-03T17:17:56.729Z,27.50
2017-08-03T17:20:24.922Z,27.40
2017-08-03T17:22:53.323Z,28.00
2017-08-03T17:25:20.957Z,28.00
2017-08-03T17:27:49.433Z,28.00
2017-08-03T17:30:17.886Z,28.60
2017-08-03T17:32:46.368Z,28.90
2017-08-03T17:35:14.152Z,28.90
2017-08-03T17:37:42.029Z,28.20
2017-08-03T17:40:11.172Z,28.50
2017-08-03T17:42:38.923Z,27.80
2017-08-03T17:45:06.831Z,28.30
2017-08-03T17:47:35.302Z,29.30
2017-08-03T17:50:03.038Z,28.10
2017-08-03T17:52:30.847Z,28.80
2017-08-03T17:54:58.592Z,28.80
2017-08-03T17:57:26.264Z,28.80
2017-08-03T17:59:54.036Z,29.30
2017-08-03T18:02:22.060Z,29.20
2017-08-03T18:04:49.808Z,29.60
2017-08-03T18:07:17.811Z,29.50
2017-08-03T18:09:45.769Z,29.60
2017-08-03T18:12:13.417Z,30.10
2017-08-03T18:14:41.654Z,30.20
2017-08-03T18:17:09.573Z,30.30
2017-08-03T18:19:37.212Z,31.30
2017-08-03T18:22:04.827Z,31.30
2017-08-03T18:24:32.506Z,31.90
2017-08-03T18:27:00.159Z,32.20
2017-08-03T18:29:27.768Z,32.00
2017-08-03T18:31:55.436Z,32.80
2017-08-03T18:34:23.063Z,33.90
2017-08-03T18:36:50.780Z,33.60
2017-08-03T18:39:18.483Z,34.40
2017-08-03T18:41:47.143Z,34.20
2017-08-03T18:44:14.906Z,34.30
2017-08-03T18:46:42.520Z,33.90
2017-08-03T18:49:10.141Z,34.20
2017-08-03T18:51:38.949Z,34.20
2017-08-03T18:54:06.667Z,35.20
2017-08-03T18:56:35.132Z,35.70
2017-08-03T18:59:03.587Z,36.20
2017-08-03T19:01:32.143Z,37.10
2017-08-03T19:03:59.808Z,36.50
2017-08-03T19:06:28.181Z,38.30
2017-08-03T19:08:55.812Z,38.30
2017-08-03T19:11:23.412Z,37.60
2017-08-03T19:13:51.018Z,37.70
2017-08-03T19:16:19.450Z,40.10
2017-08-03T19:18:47.073Z,40.00
2017-08-03T19:21:15.662Z,42.20
2017-08-03T19:23:43.423Z,43.40
2017-08-03T19:26:11.115Z,45.00
2017-08-03T19:28:38.759Z,44.40
2017-08-03T19:31:06.379Z,41.70
2017-08-03T19:33:34.887Z,42.30
2017-08-03T19:36:02.513Z,42.30
2017-08-03T19:38:30.112Z,45.10
2017-08-03T19:40:57.732Z,49.70
2017-08-03T19:43:25.344Z,42.90
2017-08-03T19:45:53.752Z,43.20
2017-08-03T19:48:21.375Z,43.00
2017-08-03T19:50:49.956Z,44.30
2017-08-03T19:53:17.583Z,44.70
2017-08-03T19:55:45.187Z,43.90
2017-08-03T19:58:12.822Z,48.40
2017-08-03T20:00:40.424Z,47.70
2017-08-03T20:03:08.046Z,50.20
2017-08-03T20:05:41.317Z,47.70
2017-08-03T20:08:08.956Z,47.50
2017-08-03T20:10:43.678Z,51.50
2017-08-03T20:13:17.771Z,55.20
2017-08-03T20:15:46.187Z,56.30
2017-08-03T20:18:16.768Z,56.20
2017-08-03T20:20:44.384Z,56.90
2017-08-03T20:23:15.000Z,56.40
2017-08-03T20:25:42.633Z,58.20
2017-08-03T20:28:10.289Z,60.70
2017-08-03T20:30:37.904Z,58.90
2017-08-03T20:33:05.514Z,62.00
2017-08-03T20:35:33.178Z,61.60
2017-08-03T20:38:00.806Z,62.20
2017-08-03T20:40:28.481Z,63.00
2017-08-03T20:42:56.140Z,64.60
2017-08-03T20:47:56.733Z,66.00
2017-08-03T20:50:24.360Z,66.20
2017-08-03T20:52:52.077Z,67.00
2017-08-03T20:55:19.840Z,68.40
2017-08-03T20:57:47.507Z,68.20
2017-08-03T21:00:16.024Z,69.40
2017-08-03T21:02:43.786Z,69.40
2017-08-03T21:05:11.574Z,69.80
2017-08-03T21:07:39.213Z,69.90
2017-08-03T21:10:06.848Z,71.90
2017-08-03T21:12:34.497Z,71.10
2017-08-03T21:15:02.873Z,71.10
2017-08-03T21:17:31.281Z,72.80
2017-08-03T21:19:58.882Z,72.70
2017-08-03T21:22:27.345Z,74.10
2017-08-03T21:24:55.753Z,74.10
2017-08-03T21:27:23.386Z,74.10
2017-08-03T21:29:51.048Z,75.00
2017-08-03T21:32:18.775Z,73.80
2017-08-03T21:34:46.539Z,73.90
2017-08-03T21:37:14.342Z,73.90
2017-08-03T21:39:42.087Z,74.10
2017-08-03T21:42:10.718Z,74.70
2017-08-03T21:44:38.344Z,73.90
2017-08-03T21:47:05.969Z,73.50
2017-08-03T21:49:33.645Z,74.10
2017-08-03T21:52:01.273Z,74.90
2017-08-03T21:54:28.943Z,74.40
2017-08-03T21:56:56.589Z,74.70
2017-08-03T21:59:24.201Z,75.00
2017-08-03T22:01:51.853Z,76.30
2017-08-03T22:04:19.495Z,77.00
2017-08-03T22:06:48.816Z,77.30
2017-08-03T22:09:16.563Z,78.20
2017-08-03T22:11:44.248Z,78.70
2017-08-03T22:14:12.682Z,77.70
2017-08-03T22:16:40.309Z,77.70
2017-08-03T22:19:07.981Z,78.80
2017-08-03T22:21:35.593Z,75.40
2017-08-03T22:24:03.250Z,76.90
2017-08-03T22:26:31.055Z,77.70
2017-08-03T22:28:58.676Z,78.00
2017-08-03T22:31:26.548Z,79.10
2017-08-03T22:33:54.211Z,79.70
2017-08-03T22:36:22.588Z,80.00
2017-08-03T22:38:50.236Z,79.90
2017-08-03T22:41:18.762Z,79.90
2017-08-03T22:43:46.416Z,81.10
2017-08-03T22:46:14.033Z,81.70
2017-08-03T22:48:41.635Z,81.50
2017-08-03T22:51:09.321Z,82.00
2017-08-03T22:53:36.928Z,81.80
2017-08-03T22:56:04.599Z,82.60
2017-08-03T22:58:32.210Z,82.30
2017-08-03T23:01:00.654Z,83.50
2017-08-03T23:03:28.313Z,83.50
2017-08-03T23:05:56.697Z,84.30
2017-08-03T23:08:25.120Z,84.10
2017-08-03T23:10:52.736Z,84.10
2017-08-03T23:13:20.370Z,85.10
2017-08-03T23:15:48.007Z,85.80
2017-08-03T23:18:15.612Z,86.40
2017-08-03T23:20:43.250Z,86.40
2017-08-03T23:23:11.016Z,87.30
2017-08-03T23:25:38.649Z,86.80
2017-08-03T23:28:06.296Z,86.70
2017-08-03T23:30:33.928Z,86.90
2017-08-03T23:33:01.588Z,87.00
2017-08-03T23:35:29.215Z,87.10
2017-08-03T23:37:56.825Z,87.40
2017-08-03T23:40:24.482Z,89.10
2017-08-03T23:42:52.095Z,90.90
2017-08-03T23:45:19.831Z,90.90
2017-08-03T23:47:47.439Z,91.30
2017-08-03T23:50:15.050Z,91.70
2017-08-03T23:52:43.471Z,90.10
2017-08-03T23:55:11.211Z,90.00
2017-08-03T23:57:38.890Z,90.40
